sensor_id;sensor_type;location;lat;lon;timestamp;P1;durP1;ratioP1;P2;durP2;ratioP2
18407;SDS011;9330;52.210;21.174;2022-10-15T00:01:09;47.80;;;35.88;;
18407;SDS011;9330;52.210;21.174;2022-10-15T00:03:38;47.42;;;36.20;;
18407;SDS011;9330;52.210;21.174;2022-10-15T00:06:07;47.40;;;36.30;;
18407;SDS011;9330;52.210;21.174;2022-10-15T00:08:36;49.05;;;38.60;;
18407;SDS011;9330;52.210;21.174;2022-10-15T00:11:06;47.28;;;36.30;;
18407;SDS011;9330;52.210;21.174;2022-10-15T00:13:35;48.92;;;37.10;;
18407;SDS011;9330;52.210;21.174;2022-10-15T00:16:03;46.92;;;37.08;;
18407;SDS011;9330;52.210;21.174;2022-10-15T00:18:32;48.63;;;38.30;;
18407;SDS011;9330;52.210;21.174;2022-10-15T00:20:59;49.28;;;37.95;;
18407;SDS011;9330;52.210;21.174;2022-10-15T00:23:26;49.30;;;38.13;;
18407;SDS011;9330;52.210;21.174;2022-10-15T00:26:00;51.50;;;38.88;;
18407;SDS011;9330;52.210;21.174;2022-10-15T00:28:29;51.13;;;40.15;;
18407;SDS011;9330;52.210;21.174;2022-10-15T00:31:00;51.35;;;38.38;;
18407;SDS011;9330;52.210;21.174;2022-10-15T00:33:28;50.70;;;39.58;;
18407;SDS011;9330;52.210;21.174;2022-10-15T00:35:58;47.90;;;38.22;;
18407;SDS011;9330;52.210;21.174;2022-10-15T00:38:26;47.78;;;36.88;;
18407;SDS011;9330;52.210;21.174;2022-10-15T00:40:53;46.00;;;36.80;;
18407;SDS011;9330;52.210;21.174;2022-10-15T00:43:41;51.92;;;39.63;;
18407;SDS011;9330;52.210;21.174;2022-10-15T00:46:15;49.45;;;38.42;;
18407;SDS011;9330;52.210;21.174;2022-10-15T00:48:48;47.13;;;36.20;;
18407;SDS011;9330;52.210;21.174;2022-10-15T00:51:18;48.78;;;38.45;;
18407;SDS011;9330;52.210;21.174;2022-10-15T00:53:47;54.42;;;40.67;;
18407;SDS011;9330;52.210;21.174;2022-10-15T00:56:16;47.80;;;38.10;;
18407;SDS011;9330;52.210;21.174;2022-10-15T00:58:46;49.58;;;38.83;;
18407;SDS011;9330;52.210;21.174;2022-10-15T01:01:14;52.42;;;39.70;;
18407;SDS011;9330;52.210;21.174;2022-10-15T01:03:41;52.17;;;40.53;;
18407;SDS011;9330;52.210;21.174;2022-10-15T01:06:08;48.78;;;38.05;;
18407;SDS011;9330;52.210;21.174;2022-10-15T01:08:35;47.03;;;36.30;;
18407;SDS011;9330;52.210;21.174;2022-10-15T01:11:06;51.47;;;37.47;;
18407;SDS011;9330;52.210;21.174;2022-10-15T01:13:43;50.45;;;39.63;;
18407;SDS011;9330;52.210;21.174;2022-10-15T01:16:21;51.63;;;37.05;;
18407;SDS011;9330;52.210;21.174;2022-10-15T01:18:56;54.80;;;39.25;;
18407;SDS011;9330;52.210;21.174;2022-10-15T01:21:27;52.33;;;39.22;;
18407;SDS011;9330;52.210;21.174;2022-10-15T01:27:19;56.22;;;40.60;;
18407;SDS011;9330;52.210;21.174;2022-10-15T01:32:55;56.88;;;42.63;;
18407;SDS011;9330;52.210;21.174;2022-10-15T01:35:43;53.83;;;41.92;;
18407;SDS011;9330;52.210;21.174;2022-10-15T01:38:17;58.88;;;44.92;;
18407;SDS011;9330;52.210;21.174;2022-10-15T01:41:01;53.80;;;40.60;;
18407;SDS011;9330;52.210;21.174;2022-10-15T01:43:34;57.67;;;43.15;;
18407;SDS011;9330;52.210;21.174;2022-10-15T01:46:05;59.13;;;44.30;;
18407;SDS011;9330;52.210;21.174;2022-10-15T01:48:39;58.78;;;43.15;;
18407;SDS011;9330;52.210;21.174;2022-10-15T01:51:08;55.22;;;42.00;;
18407;SDS011;9330;52.210;21.174;2022-10-15T01:53:37;57.33;;;42.60;;
18407;SDS011;9330;52.210;21.174;2022-10-15T01:56:06;58.13;;;41.65;;
18407;SDS011;9330;52.210;21.174;2022-10-15T01:58:36;59.35;;;45.10;;
18407;SDS011;9330;52.210;21.174;2022-10-15T02:01:06;54.22;;;41.42;;
18407;SDS011;9330;52.210;21.174;2022-10-15T02:03:43;56.78;;;42.25;;
18407;SDS011;9330;52.210;21.174;2022-10-15T02:06:12;62.53;;;45.03;;
18407;SDS011;9330;52.210;21.174;2022-10-15T02:08:47;56.70;;;42.45;;
18407;SDS011;9330;52.210;21.174;2022-10-15T02:11:31;54.75;;;42.35;;
18407;SDS011;9330;52.210;21.174;2022-10-15T02:14:14;54.55;;;43.70;;
18407;SDS011;9330;52.210;21.174;2022-10-15T02:16:45;56.53;;;42.85;;
18407;SDS011;9330;52.210;21.174;2022-10-15T02:19:20;57.17;;;42.70;;
18407;SDS011;9330;52.210;21.174;2022-10-15T02:21:52;60.67;;;44.95;;
18407;SDS011;9330;52.210;21.174;2022-10-15T02:24:25;57.22;;;43.88;;
18407;SDS011;9330;52.210;21.174;2022-10-15T02:26:58;57.72;;;42.80;;
18407;SDS011;9330;52.210;21.174;2022-10-15T02:29:28;55.03;;;41.35;;
18407;SDS011;9330;52.210;21.174;2022-10-15T02:31:58;57.15;;;41.67;;
18407;SDS011;9330;52.210;21.174;2022-10-15T02:34:29;58.13;;;41.83;;
18407;SDS011;9330;52.210;21.174;2022-10-15T02:37:00;55.53;;;40.95;;
18407;SDS011;9330;52.210;21.174;2022-10-15T02:39:29;55.65;;;42.83;;
18407;SDS011;9330;52.210;21.174;2022-10-15T02:41:56;58.42;;;43.38;;
18407;SDS011;9330;52.210;21.174;2022-10-15T02:44:23;59.25;;;43.75;;
18407;SDS011;9330;52.210;21.174;2022-10-15T02:46:50;60.20;;;45.25;;
18407;SDS011;9330;52.210;21.174;2022-10-15T02:49:17;55.65;;;42.35;;
18407;SDS011;9330;52.210;21.174;2022-10-15T02:51:45;56.47;;;43.03;;
18407;SDS011;9330;52.210;21.174;2022-10-15T02:54:12;56.35;;;42.28;;
18407;SDS011;9330;52.210;21.174;2022-10-15T02:56:39;61.85;;;41.50;;
18407;SDS011;9330;52.210;21.174;2022-10-15T02:59:05;62.47;;;42.97;;
18407;SDS011;9330;52.210;21.174;2022-10-15T03:01:33;59.25;;;44.70;;
18407;SDS011;9330;52.210;21.174;2022-10-15T03:04:00;51.33;;;40.63;;
18407;SDS011;9330;52.210;21.174;2022-10-15T03:06:27;54.13;;;41.50;;
18407;SDS011;9330;52.210;21.174;2022-10-15T03:08:55;58.40;;;42.58;;
18407;SDS011;9330;52.210;21.174;2022-10-15T03:11:22;52.03;;;39.13;;
18407;SDS011;9330;52.210;21.174;2022-10-15T03:13:49;54.75;;;41.25;;
18407;SDS011;9330;52.210;21.174;2022-10-15T03:16:16;50.17;;;38.05;;
18407;SDS011;9330;52.210;21.174;2022-10-15T03:18:42;53.55;;;39.45;;
18407;SDS011;9330;52.210;21.174;2022-10-15T03:21:09;51.20;;;39.80;;
18407;SDS011;9330;52.210;21.174;2022-10-15T03:23:36;50.17;;;37.38;;
18407;SDS011;9330;52.210;21.174;2022-10-15T03:26:05;54.10;;;40.33;;
18407;SDS011;9330;52.210;21.174;2022-10-15T03:28:32;49.17;;;38.20;;
18407;SDS011;9330;52.210;21.174;2022-10-15T03:30:59;52.42;;;38.10;;
18407;SDS011;9330;52.210;21.174;2022-10-15T03:33:25;47.78;;;37.22;;
18407;SDS011;9330;52.210;21.174;2022-10-15T03:35:52;52.88;;;38.92;;
18407;SDS011;9330;52.210;21.174;2022-10-15T03:38:19;49.15;;;37.17;;
18407;SDS011;9330;52.210;21.174;2022-10-15T03:40:46;46.15;;;37.70;;
18407;SDS011;9330;52.210;21.174;2022-10-15T03:43:15;51.60;;;40.60;;
18407;SDS011;9330;52.210;21.174;2022-10-15T03:45:42;52.33;;;38.35;;
18407;SDS011;9330;52.210;21.174;2022-10-15T03:48:08;48.10;;;36.58;;
18407;SDS011;9330;52.210;21.174;2022-10-15T03:50:35;51.63;;;39.97;;
18407;SDS011;9330;52.210;21.174;2022-10-15T03:53:03;49.75;;;38.50;;
18407;SDS011;9330;52.210;21.174;2022-10-15T03:55:30;51.65;;;39.70;;
18407;SDS011;9330;52.210;21.174;2022-10-15T03:57:57;52.15;;;39.28;;
18407;SDS011;9330;52.210;21.174;2022-10-15T04:00:25;48.13;;;36.03;;
18407;SDS011;9330;52.210;21.174;2022-10-15T04:02:53;53.45;;;40.05;;
18407;SDS011;9330;52.210;21.174;2022-10-15T04:05:20;56.33;;;41.33;;
18407;SDS011;9330;52.210;21.174;2022-10-15T04:07:46;53.30;;;39.38;;
18407;SDS011;9330;52.210;21.174;2022-10-15T04:10:13;51.38;;;36.83;;
18407;SDS011;9330;52.210;21.174;2022-10-15T04:12:40;49.03;;;36.42;;
18407;SDS011;9330;52.210;21.174;2022-10-15T04:15:07;54.75;;;40.75;;
18407;SDS011;9330;52.210;21.174;2022-10-15T04:17:36;51.83;;;39.45;;
18407;SDS011;9330;52.210;21.174;2022-10-15T04:20:03;51.25;;;38.10;;
18407;SDS011;9330;52.210;21.174;2022-10-15T04:22:30;51.90;;;39.05;;
18407;SDS011;9330;52.210;21.174;2022-10-15T04:24:57;54.60;;;40.47;;
18407;SDS011;9330;52.210;21.174;2022-10-15T04:27:24;50.88;;;39.30;;
18407;SDS011;9330;52.210;21.174;2022-10-15T04:29:51;55.40;;;38.40;;
18407;SDS011;9330;52.210;21.174;2022-10-15T04:32:18;48.75;;;36.22;;
18407;SDS011;9330;52.210;21.174;2022-10-15T04:34:46;53.15;;;39.90;;
18407;SDS011;9330;52.210;21.174;2022-10-15T04:37:13;48.28;;;35.92;;
18407;SDS011;9330;52.210;21.174;2022-10-15T04:39:40;51.70;;;38.85;;
18407;SDS011;9330;52.210;21.174;2022-10-15T04:42:07;47.78;;;37.30;;
18407;SDS011;9330;52.210;21.174;2022-10-15T04:44:34;49.45;;;37.10;;
18407;SDS011;9330;52.210;21.174;2022-10-15T04:47:01;49.83;;;38.40;;
18407;SDS011;9330;52.210;21.174;2022-10-15T04:49:27;48.85;;;36.17;;
18407;SDS011;9330;52.210;21.174;2022-10-15T04:51:56;49.58;;;37.35;;
18407;SDS011;9330;52.210;21.174;2022-10-15T04:54:23;52.28;;;38.33;;
18407;SDS011;9330;52.210;21.174;2022-10-15T04:56:49;49.03;;;37.10;;
18407;SDS011;9330;52.210;21.174;2022-10-15T04:59:16;52.03;;;38.75;;
18407;SDS011;9330;52.210;21.174;2022-10-15T05:01:43;50.35;;;37.25;;
18407;SDS011;9330;52.210;21.174;2022-10-15T05:04:10;55.38;;;41.53;;
18407;SDS011;9330;52.210;21.174;2022-10-15T05:06:37;55.38;;;40.08;;
18407;SDS011;9330;52.210;21.174;2022-10-15T05:09:06;51.58;;;38.28;;
18407;SDS011;9330;52.210;21.174;2022-10-15T05:11:34;52.38;;;38.40;;
18407;SDS011;9330;52.210;21.174;2022-10-15T05:14:02;56.47;;;39.03;;
18407;SDS011;9330;52.210;21.174;2022-10-15T05:16:30;51.28;;;36.47;;
18407;SDS011;9330;52.210;21.174;2022-10-15T05:18:58;51.65;;;38.35;;
18407;SDS011;9330;52.210;21.174;2022-10-15T05:21:25;50.80;;;36.92;;
18407;SDS011;9330;52.210;21.174;2022-10-15T05:23:53;51.00;;;37.50;;
18407;SDS011;9330;52.210;21.174;2022-10-15T05:26:22;48.00;;;38.03;;
18407;SDS011;9330;52.210;21.174;2022-10-15T05:28:50;50.28;;;38.97;;
18407;SDS011;9330;52.210;21.174;2022-10-15T05:31:18;50.08;;;36.97;;
18407;SDS011;9330;52.210;21.174;2022-10-15T05:33:46;50.47;;;38.38;;
18407;SDS011;9330;52.210;21.174;2022-10-15T05:36:14;52.55;;;37.35;;
18407;SDS011;9330;52.210;21.174;2022-10-15T05:38:42;52.15;;;37.83;;
18407;SDS011;9330;52.210;21.174;2022-10-15T05:41:09;52.03;;;38.30;;
18407;SDS011;9330;52.210;21.174;2022-10-15T05:43:38;48.30;;;36.95;;
18407;SDS011;9330;52.210;21.174;2022-10-15T05:46:05;48.22;;;36.72;;
18407;SDS011;9330;52.210;21.174;2022-10-15T05:48:32;51.22;;;38.40;;
18407;SDS011;9330;52.210;21.174;2022-10-15T05:51:00;49.50;;;37.97;;
18407;SDS011;9330;52.210;21.174;2022-10-15T05:53:27;56.45;;;40.85;;
18407;SDS011;9330;52.210;21.174;2022-10-15T05:55:55;48.10;;;37.35;;
18407;SDS011;9330;52.210;21.174;2022-10-15T05:58:23;47.75;;;35.55;;
18407;SDS011;9330;52.210;21.174;2022-10-15T06:00:54;46.60;;;36.28;;
18407;SDS011;9330;52.210;21.174;2022-10-15T06:03:21;45.45;;;35.50;;
18407;SDS011;9330;52.210;21.174;2022-10-15T06:05:49;47.30;;;36.78;;
18407;SDS011;9330;52.210;21.174;2022-10-15T06:08:16;47.35;;;35.67;;
18407;SDS011;9330;52.210;21.174;2022-10-15T06:10:44;45.45;;;35.17;;
18407;SDS011;9330;52.210;21.174;2022-10-15T06:13:11;50.22;;;38.55;;
18407;SDS011;9330;52.210;21.174;2022-10-15T06:15:39;52.47;;;37.50;;
18407;SDS011;9330;52.210;21.174;2022-10-15T06:18:08;46.33;;;36.60;;
18407;SDS011;9330;52.210;21.174;2022-10-15T06:20:35;47.13;;;37.70;;
18407;SDS011;9330;52.210;21.174;2022-10-15T06:23:03;51.28;;;38.53;;
18407;SDS011;9330;52.210;21.174;2022-10-15T06:25:30;45.05;;;35.08;;
18407;SDS011;9330;52.210;21.174;2022-10-15T06:27:59;46.42;;;36.78;;
18407;SDS011;9330;52.210;21.174;2022-10-15T06:30:27;47.35;;;35.35;;
18407;SDS011;9330;52.210;21.174;2022-10-15T06:32:54;46.83;;;35.70;;
18407;SDS011;9330;52.210;21.174;2022-10-15T06:35:23;45.55;;;33.88;;
18407;SDS011;9330;52.210;21.174;2022-10-15T06:37:54;47.13;;;35.67;;
18407;SDS011;9330;52.210;21.174;2022-10-15T06:40:21;44.50;;;33.10;;
18407;SDS011;9330;52.210;21.174;2022-10-15T06:42:48;48.25;;;36.45;;
18407;SDS011;9330;52.210;21.174;2022-10-15T06:45:15;48.08;;;36.63;;
18407;SDS011;9330;52.210;21.174;2022-10-15T06:47:42;48.35;;;36.47;;
18407;SDS011;9330;52.210;21.174;2022-10-15T06:50:09;42.25;;;34.30;;
18407;SDS011;9330;52.210;21.174;2022-10-15T06:52:37;42.50;;;34.05;;
18407;SDS011;9330;52.210;21.174;2022-10-15T06:55:05;44.13;;;36.83;;
18407;SDS011;9330;52.210;21.174;2022-10-15T06:57:32;41.35;;;31.42;;
18407;SDS011;9330;52.210;21.174;2022-10-15T06:59:59;45.03;;;35.08;;
18407;SDS011;9330;52.210;21.174;2022-10-15T07:02:26;44.63;;;35.90;;
18407;SDS011;9330;52.210;21.174;2022-10-15T07:04:53;41.92;;;33.15;;
18407;SDS011;9330;52.210;21.174;2022-10-15T07:07:20;42.22;;;32.45;;
18407;SDS011;9330;52.210;21.174;2022-10-15T07:09:48;42.28;;;33.17;;
18407;SDS011;9330;52.210;21.174;2022-10-15T07:12:17;41.20;;;33.33;;
18407;SDS011;9330;52.210;21.174;2022-10-15T07:14:46;40.47;;;30.55;;
18407;SDS011;9330;52.210;21.174;2022-10-15T07:17:13;40.08;;;32.08;;
18407;SDS011;9330;52.210;21.174;2022-10-15T07:19:40;39.55;;;32.00;;
18407;SDS011;9330;52.210;21.174;2022-10-15T07:22:07;37.00;;;29.38;;
18407;SDS011;9330;52.210;21.174;2022-10-15T07:24:34;42.30;;;32.47;;
18407;SDS011;9330;52.210;21.174;2022-10-15T07:27:03;41.38;;;31.38;;
18407;SDS011;9330;52.210;21.174;2022-10-15T07:29:30;38.38;;;31.00;;
18407;SDS011;9330;52.210;21.174;2022-10-15T07:31:57;42.72;;;31.83;;
18407;SDS011;9330;52.210;21.174;2022-10-15T07:34:24;35.20;;;28.88;;
18407;SDS011;9330;52.210;21.174;2022-10-15T07:36:51;34.67;;;28.25;;
18407;SDS011;9330;52.210;21.174;2022-10-15T07:39:18;33.40;;;26.95;;
18407;SDS011;9330;52.210;21.174;2022-10-15T07:41:45;34.55;;;27.77;;
18407;SDS011;9330;52.210;21.174;2022-10-15T07:44:13;31.42;;;27.40;;
18407;SDS011;9330;52.210;21.174;2022-10-15T07:46:40;34.50;;;27.92;;
18407;SDS011;9330;52.210;21.174;2022-10-15T07:49:07;31.92;;;26.58;;
18407;SDS011;9330;52.210;21.174;2022-10-15T07:51:35;32.42;;;25.92;;
18407;SDS011;9330;52.210;21.174;2022-10-15T07:54:02;28.67;;;24.15;;
18407;SDS011;9330;52.210;21.174;2022-10-15T07:56:29;32.70;;;27.35;;
18407;SDS011;9330;52.210;21.174;2022-10-15T07:58:56;30.48;;;25.38;;
18407;SDS011;9330;52.210;21.174;2022-10-15T08:01:24;34.33;;;26.92;;
18407;SDS011;9330;52.210;21.174;2022-10-15T08:03:51;30.33;;;25.58;;
18407;SDS011;9330;52.210;21.174;2022-10-15T08:06:18;28.38;;;24.52;;
18407;SDS011;9330;52.210;21.174;2022-10-15T08:08:45;27.15;;;23.42;;
18407;SDS011;9330;52.210;21.174;2022-10-15T08:11:13;28.13;;;24.55;;
18407;SDS011;9330;52.210;21.174;2022-10-15T08:13:41;31.52;;;25.08;;
18407;SDS011;9330;52.210;21.174;2022-10-15T08:16:11;30.88;;;25.38;;
18407;SDS011;9330;52.210;21.174;2022-10-15T08:18:41;30.75;;;25.05;;
18407;SDS011;9330;52.210;21.174;2022-10-15T08:21:09;32.33;;;25.10;;
18407;SDS011;9330;52.210;21.174;2022-10-15T08:23:36;29.40;;;25.33;;
18407;SDS011;9330;52.210;21.174;2022-10-15T08:26:03;32.70;;;27.23;;
18407;SDS011;9330;52.210;21.174;2022-10-15T08:28:31;32.72;;;27.50;;
18407;SDS011;9330;52.210;21.174;2022-10-15T08:30:59;34.38;;;27.42;;
18407;SDS011;9330;52.210;21.174;2022-10-15T08:33:27;34.03;;;26.90;;
18407;SDS011;9330;52.210;21.174;2022-10-15T08:35:55;32.58;;;25.27;;
18407;SDS011;9330;52.210;21.174;2022-10-15T08:38:22;36.42;;;28.92;;
18407;SDS011;9330;52.210;21.174;2022-10-15T08:40:50;32.47;;;27.63;;
18407;SDS011;9330;52.210;21.174;2022-10-15T08:43:21;30.80;;;25.92;;
18407;SDS011;9330;52.210;21.174;2022-10-15T08:45:51;33.47;;;26.75;;
18407;SDS011;9330;52.210;21.174;2022-10-15T08:48:22;30.60;;;25.65;;
18407;SDS011;9330;52.210;21.174;2022-10-15T08:50:57;30.35;;;25.35;;
18407;SDS011;9330;52.210;21.174;2022-10-15T08:53:27;29.85;;;22.95;;
18407;SDS011;9330;52.210;21.174;2022-10-15T08:55:56;33.35;;;25.98;;
18407;SDS011;9330;52.210;21.174;2022-10-15T08:58:30;26.50;;;23.45;;
18407;SDS011;9330;52.210;21.174;2022-10-15T09:01:05;27.38;;;23.02;;
18407;SDS011;9330;52.210;21.174;2022-10-15T09:03:43;26.80;;;23.88;;
18407;SDS011;9330;52.210;21.174;2022-10-15T09:06:22;26.70;;;22.35;;
18407;SDS011;9330;52.210;21.174;2022-10-15T09:08:52;26.52;;;22.75;;
18407;SDS011;9330;52.210;21.174;2022-10-15T09:11:29;26.23;;;21.20;;
18407;SDS011;9330;52.210;21.174;2022-10-15T09:14:06;25.80;;;20.67;;
18407;SDS011;9330;52.210;21.174;2022-10-15T09:16:37;24.25;;;21.05;;
18407;SDS011;9330;52.210;21.174;2022-10-15T09:19:10;24.67;;;21.42;;
18407;SDS011;9330;52.210;21.174;2022-10-15T09:21:41;25.90;;;20.02;;
18407;SDS011;9330;52.210;21.174;2022-10-15T09:24:09;23.75;;;20.35;;
18407;SDS011;9330;52.210;21.174;2022-10-15T09:26:43;24.75;;;20.77;;
18407;SDS011;9330;52.210;21.174;2022-10-15T09:29:19;24.27;;;19.50;;
18407;SDS011;9330;52.210;21.174;2022-10-15T09:31:54;26.25;;;21.48;;
18407;SDS011;9330;52.210;21.174;2022-10-15T09:34:28;24.33;;;20.55;;
18407;SDS011;9330;52.210;21.174;2022-10-15T09:37:06;23.20;;;19.55;;
18407;SDS011;9330;52.210;21.174;2022-10-15T09:39:42;22.73;;;19.02;;
18407;SDS011;9330;52.210;21.174;2022-10-15T09:42:24;26.60;;;19.05;;
18407;SDS011;9330;52.210;21.174;2022-10-15T09:44:55;25.27;;;18.55;;
18407;SDS011;9330;52.210;21.174;2022-10-15T09:47:26;22.58;;;18.42;;
18407;SDS011;9330;52.210;21.174;2022-10-15T09:49:54;25.00;;;18.05;;
18407;SDS011;9330;52.210;21.174;2022-10-15T09:52:25;22.13;;;17.00;;
18407;SDS011;9330;52.210;21.174;2022-10-15T09:55:06;24.33;;;17.92;;
18407;SDS011;9330;52.210;21.174;2022-10-15T09:57:54;22.58;;;17.92;;
18407;SDS011;9330;52.210;21.174;2022-10-15T10:00:23;21.85;;;17.75;;
18407;SDS011;9330;52.210;21.174;2022-10-15T10:03:02;21.27;;;17.23;;
18407;SDS011;9330;52.210;21.174;2022-10-15T10:05:32;21.30;;;19.08;;
18407;SDS011;9330;52.210;21.174;2022-10-15T10:08:10;22.30;;;18.27;;
18407;SDS011;9330;52.210;21.174;2022-10-15T10:10:44;21.25;;;17.52;;
18407;SDS011;9330;52.210;21.174;2022-10-15T10:13:21;21.77;;;17.35;;
18407;SDS011;9330;52.210;21.174;2022-10-15T10:15:50;20.80;;;16.65;;
18407;SDS011;9330;52.210;21.174;2022-10-15T10:18:20;20.10;;;16.35;;
18407;SDS011;9330;52.210;21.174;2022-10-15T10:20:52;19.63;;;16.75;;
18407;SDS011;9330;52.210;21.174;2022-10-15T10:23:27;20.13;;;16.90;;
18407;SDS011;9330;52.210;21.174;2022-10-15T10:25:58;20.25;;;16.58;;
18407;SDS011;9330;52.210;21.174;2022-10-15T10:28:27;22.67;;;17.13;;
18407;SDS011;9330;52.210;21.174;2022-10-15T10:30:58;19.83;;;16.67;;
18407;SDS011;9330;52.210;21.174;2022-10-15T10:33:29;18.63;;;15.88;;
18407;SDS011;9330;52.210;21.174;2022-10-15T10:35:57;19.23;;;16.40;;
18407;SDS011;9330;52.210;21.174;2022-10-15T10:38:27;19.00;;;16.02;;
18407;SDS011;9330;52.210;21.174;2022-10-15T10:40:58;19.77;;;16.65;;
18407;SDS011;9330;52.210;21.174;2022-10-15T10:43:29;19.60;;;16.10;;
18407;SDS011;9330;52.210;21.174;2022-10-15T10:45:57;18.70;;;15.10;;
18407;SDS011;9330;52.210;21.174;2022-10-15T10:48:26;19.80;;;15.50;;
18407;SDS011;9330;52.210;21.174;2022-10-15T10:51:03;17.35;;;15.55;;
18407;SDS011;9330;52.210;21.174;2022-10-15T10:53:43;17.55;;;15.13;;
18407;SDS011;9330;52.210;21.174;2022-10-15T10:56:13;21.60;;;15.95;;
18407;SDS011;9330;52.210;21.174;2022-10-15T10:58:46;18.48;;;15.00;;
18407;SDS011;9330;52.210;21.174;2022-10-15T11:01:17;19.40;;;16.15;;
18407;SDS011;9330;52.210;21.174;2022-10-15T11:03:44;18.58;;;15.73;;
18407;SDS011;9330;52.210;21.174;2022-10-15T11:09:21;18.00;;;15.07;;
18407;SDS011;9330;52.210;21.174;2022-10-15T11:12:05;16.63;;;14.82;;
18407;SDS011;9330;52.210;21.174;2022-10-15T11:14:45;17.27;;;15.13;;
18407;SDS011;9330;52.210;21.174;2022-10-15T11:17:20;16.92;;;14.73;;
18407;SDS011;9330;52.210;21.174;2022-10-15T11:19:56;21.05;;;14.25;;
18407;SDS011;9330;52.210;21.174;2022-10-15T11:22:36;17.65;;;14.57;;
18407;SDS011;9330;52.210;21.174;2022-10-15T11:25:18;15.73;;;13.90;;
18407;SDS011;9330;52.210;21.174;2022-10-15T11:27:59;18.35;;;15.23;;
18407;SDS011;9330;52.210;21.174;2022-10-15T11:30:36;18.08;;;13.80;;
18407;SDS011;9330;52.210;21.174;2022-10-15T11:33:15;20.83;;;14.30;;
18407;SDS011;9330;52.210;21.174;2022-10-15T11:35:57;17.10;;;14.13;;
18407;SDS011;9330;52.210;21.174;2022-10-15T11:38:37;16.83;;;13.75;;
18407;SDS011;9330;52.210;21.174;2022-10-15T11:41:14;16.50;;;12.80;;
18407;SDS011;9330;52.210;21.174;2022-10-15T11:43:57;15.20;;;13.60;;
18407;SDS011;9330;52.210;21.174;2022-10-15T11:46:36;16.98;;;13.93;;
18407;SDS011;9330;52.210;21.174;2022-10-15T11:49:17;16.27;;;13.50;;
18407;SDS011;9330;52.210;21.174;2022-10-15T11:52:01;15.98;;;13.18;;
18407;SDS011;9330;52.210;21.174;2022-10-15T11:54:39;15.23;;;13.10;;
18407;SDS011;9330;52.210;21.174;2022-10-15T11:57:12;15.48;;;13.48;;
18407;SDS011;9330;52.210;21.174;2022-10-15T11:59:44;13.98;;;11.85;;
18407;SDS011;9330;52.210;21.174;2022-10-15T12:02:16;13.70;;;12.23;;
18407;SDS011;9330;52.210;21.174;2022-10-15T12:04:48;18.55;;;12.88;;
18407;SDS011;9330;52.210;21.174;2022-10-15T12:07:19;13.45;;;12.02;;
18407;SDS011;9330;52.210;21.174;2022-10-15T12:09:50;16.10;;;12.95;;
18407;SDS011;9330;52.210;21.174;2022-10-15T12:12:24;14.38;;;12.13;;
18407;SDS011;9330;52.210;21.174;2022-10-15T12:15:03;15.60;;;12.02;;
18407;SDS011;9330;52.210;21.174;2022-10-15T12:17:46;13.63;;;12.10;;
18407;SDS011;9330;52.210;21.174;2022-10-15T12:20:17;13.23;;;11.73;;
18407;SDS011;9330;52.210;21.174;2022-10-15T12:22:53;12.77;;;11.13;;
18407;SDS011;9330;52.210;21.174;2022-10-15T12:25:43;14.95;;;12.07;;
18407;SDS011;9330;52.210;21.174;2022-10-15T12:28:14;15.27;;;12.40;;
18407;SDS011;9330;52.210;21.174;2022-10-15T12:30:53;13.93;;;12.05;;
18407;SDS011;9330;52.210;21.174;2022-10-15T12:33:31;12.85;;;11.52;;
18407;SDS011;9330;52.210;21.174;2022-10-15T12:36:01;13.48;;;12.07;;
18407;SDS011;9330;52.210;21.174;2022-10-15T12:38:33;12.35;;;11.05;;
18407;SDS011;9330;52.210;21.174;2022-10-15T12:41:03;14.38;;;11.55;;
18407;SDS011;9330;52.210;21.174;2022-10-15T12:43:34;14.75;;;12.23;;
18407;SDS011;9330;52.210;21.174;2022-10-15T12:46:05;13.30;;;11.88;;
18407;SDS011;9330;52.210;21.174;2022-10-15T12:48:34;14.60;;;12.60;;
18407;SDS011;9330;52.210;21.174;2022-10-15T13:05:57;17.33;;;13.10;;
18407;SDS011;9330;52.210;21.174;2022-10-15T13:08:50;14.00;;;12.00;;
18407;SDS011;9330;52.210;21.174;2022-10-15T13:11:20;14.05;;;12.25;;
18407;SDS011;9330;52.210;21.174;2022-10-15T13:13:50;16.25;;;12.27;;
18407;SDS011;9330;52.210;21.174;2022-10-15T13:16:24;13.38;;;11.98;;
18407;SDS011;9330;52.210;21.174;2022-10-15T13:18:52;14.48;;;12.75;;
18407;SDS011;9330;52.210;21.174;2022-10-15T13:21:21;13.82;;;12.40;;
18407;SDS011;9330;52.210;21.174;2022-10-15T13:24:09;13.38;;;11.98;;
18407;SDS011;9330;52.210;21.174;2022-10-15T13:26:37;18.70;;;16.70;;
18407;SDS011;9330;52.210;21.174;2022-10-15T13:29:04;15.27;;;13.65;;
18407;SDS011;9330;52.210;21.174;2022-10-15T13:31:34;16.70;;;12.57;;
18407;SDS011;9330;52.210;21.174;2022-10-15T13:34:03;14.70;;;11.93;;
18407;SDS011;9330;52.210;21.174;2022-10-15T13:36:36;15.63;;;14.07;;
18407;SDS011;9330;52.210;21.174;2022-10-15T13:39:05;14.05;;;12.43;;
18407;SDS011;9330;52.210;21.174;2022-10-15T13:41:33;13.40;;;12.10;;
18407;SDS011;9330;52.210;21.174;2022-10-15T13:44:04;12.73;;;11.43;;
18407;SDS011;9330;52.210;21.174;2022-10-15T13:46:35;14.38;;;12.98;;
18407;SDS011;9330;52.210;21.174;2022-10-15T13:49:08;14.25;;;12.25;;
18407;SDS011;9330;52.210;21.174;2022-10-15T13:51:37;16.30;;;14.20;;
18407;SDS011;9330;52.210;21.174;2022-10-15T13:54:07;15.30;;;12.80;;
18407;SDS011;9330;52.210;21.174;2022-10-15T13:56:40;15.85;;;13.15;;
18407;SDS011;9330;52.210;21.174;2022-10-15T13:59:11;16.52;;;14.18;;
18407;SDS011;9330;52.210;21.174;2022-10-15T14:01:45;13.38;;;11.98;;
18407;SDS011;9330;52.210;21.174;2022-10-15T14:04:15;16.95;;;14.07;;
18407;SDS011;9330;52.210;21.174;2022-10-15T14:06:51;20.35;;;17.10;;
18407;SDS011;9330;52.210;21.174;2022-10-15T14:09:21;18.02;;;16.13;;
18407;SDS011;9330;52.210;21.174;2022-10-15T14:11:51;14.50;;;13.00;;
18407;SDS011;9330;52.210;21.174;2022-10-15T14:14:28;14.43;;;12.93;;
18407;SDS011;9330;52.210;21.174;2022-10-15T14:16:59;18.17;;;14.30;;
18407;SDS011;9330;52.210;21.174;2022-10-15T14:19:28;15.80;;;14.20;;
18407;SDS011;9330;52.210;21.174;2022-10-15T14:21:57;19.05;;;13.98;;
18407;SDS011;9330;52.210;21.174;2022-10-15T14:24:27;16.08;;;13.13;;
18407;SDS011;9330;52.210;21.174;2022-10-15T14:27:01;16.85;;;14.55;;
18407;SDS011;9330;52.210;21.174;2022-10-15T14:29:34;15.70;;;13.75;;
18407;SDS011;9330;52.210;21.174;2022-10-15T14:32:17;15.52;;;13.80;;
18407;SDS011;9330;52.210;21.174;2022-10-15T14:34:46;16.00;;;14.23;;
18407;SDS011;9330;52.210;21.174;2022-10-15T14:37:30;15.15;;;13.65;;
18407;SDS011;9330;52.210;21.174;2022-10-15T14:40:12;15.38;;;13.23;;
18407;SDS011;9330;52.210;21.174;2022-10-15T14:42:43;15.23;;;13.43;;
18407;SDS011;9330;52.210;21.174;2022-10-15T14:45:12;16.00;;;14.13;;
18407;SDS011;9330;52.210;21.174;2022-10-15T14:47:46;17.05;;;14.20;;
18407;SDS011;9330;52.210;21.174;2022-10-15T14:50:16;14.88;;;13.10;;
18407;SDS011;9330;52.210;21.174;2022-10-15T14:52:44;18.05;;;14.13;;
18407;SDS011;9330;52.210;21.174;2022-10-15T14:55:15;15.75;;;13.20;;
18407;SDS011;9330;52.210;21.174;2022-10-15T14:57:51;15.82;;;13.88;;
18407;SDS011;9330;52.210;21.174;2022-10-15T15:00:20;17.15;;;14.23;;
18407;SDS011;9330;52.210;21.174;2022-10-15T15:02:52;16.67;;;14.88;;
18407;SDS011;9330;52.210;21.174;2022-10-15T15:05:21;17.63;;;15.82;;